createdAt,value
2022-09-17T00:04:54.848Z,99167.88
2022-09-17T00:09:56.492Z,99178.88
2022-09-17T00:14:58.268Z,99181.09
2022-09-17T00:19:59.796Z,99176.56
2022-09-17T00:25:01.416Z,99165.38
2022-09-17T00:30:03.610Z,99172.41
2022-09-17T00:35:05.679Z,99182.81
2022-09-17T00:40:08.040Z,99181.56
2022-09-17T00:45:09.996Z,99180.31
2022-09-17T00:50:23.558Z,99182.84
2022-09-17T00:55:31.761Z,99177.91
2022-09-17T01:00:33.517Z,99177.91
2022-09-17T01:05:35.088Z,99180.63
2022-09-17T01:10:46.977Z,99178.72
2022-09-17T01:15:51.141Z,99171.28
2022-09-17T01:21:22.002Z,99176.66
2022-09-17T01:26:54.803Z,99168.81
2022-09-17T01:32:03.243Z,99167.25
2022-09-17T01:37:14.606Z,99177.31
2022-09-17T01:42:25.522Z,99165.44
2022-09-17T01:47:32.786Z,99178.69
2022-09-17T01:52:36.425Z,99183.63
2022-09-17T01:57:47.425Z,99189.25
2022-09-17T02:03:06.039Z,99178.72
2022-09-17T02:08:16.057Z,99178.72
2022-09-17T02:13:24.653Z,99188.31
2022-09-17T02:18:45.639Z,99184.75
2022-09-17T02:24:03.861Z,99188.31
2022-09-17T02:29:16.424Z,99170.63
2022-09-17T02:34:18.337Z,99178.75
2022-09-17T02:39:19.866Z,99180.00
2022-09-17T02:44:46.665Z,99169.25
2022-09-17T02:50:06.688Z,99166.97
2022-09-17T02:55:29.782Z,99168.00
2022-09-17T03:00:31.551Z,99165.31
2022-09-17T03:05:34.397Z,99177.91
2022-09-17T03:10:35.919Z,99176.47
2022-09-17T03:15:37.584Z,99164.69
2022-09-17T03:20:39.127Z,99169.38
2022-09-17T03:25:40.648Z,99178.94
2022-09-17T03:30:46.216Z,99185.63
2022-09-17T03:35:48.096Z,99195.91
2022-09-17T03:40:59.212Z,99185.53
2022-09-17T03:46:00.961Z,99188.09
2022-09-17T03:51:03.077Z,99185.06
2022-09-17T03:56:06.597Z,99184.53
2022-09-17T04:01:08.139Z,99196.75
2022-09-17T04:06:09.672Z,99208.13
2022-09-17T04:11:11.328Z,99196.75
2022-09-17T04:16:12.999Z,99191.94
2022-09-17T04:21:14.682Z,99200.81
2022-09-17T04:26:16.221Z,99199.69
2022-09-17T04:31:17.813Z,99198.97
2022-09-17T04:36:19.472Z,99201.75
2022-09-17T04:41:20.986Z,99201.34
2022-09-17T04:46:22.595Z,99212.13
2022-09-17T04:51:24.164Z,99204.75
2022-09-17T04:56:25.860Z,99216.22
2022-09-17T05:01:27.580Z,99211.69
2022-09-17T05:06:29.112Z,99215.78
2022-09-17T05:11:30.662Z,99214.56
2022-09-17T05:16:32.294Z,99214.88
2022-09-17T05:21:33.869Z,99224.81
2022-09-17T05:26:35.774Z,99225.81
2022-09-17T05:31:37.454Z,99221.06
2022-09-17T05:36:39.180Z,99219.88
2022-09-17T05:41:46.510Z,99227.72
2022-09-17T05:46:53.471Z,99208.78
2022-09-17T05:51:55.133Z,99216.59
2022-09-17T05:56:56.650Z,99226.88
2022-09-17T06:01:58.306Z,99212.06
2022-09-17T06:06:59.974Z,99225.25
2022-09-17T06:12:04.978Z,99226.22
2022-09-17T06:17:09.512Z,99223.03
2022-09-17T06:22:13.300Z,99234.72
2022-09-17T06:27:17.197Z,99225.63
2022-09-17T06:32:21.901Z,99218.84
2022-09-17T06:37:31.536Z,99225.09
2022-09-17T06:42:33.153Z,99221.81
2022-09-17T06:47:37.289Z,99227.84
2022-09-17T06:52:39.007Z,99214.75
2022-09-17T06:57:40.571Z,99226.81
2022-09-17T07:02:42.262Z,99230.31
2022-09-17T07:07:43.932Z,99227.19
2022-09-17T07:12:50.081Z,99223.88
2022-09-17T07:17:51.728Z,99232.75
2022-09-17T07:22:57.424Z,99229.50
2022-09-17T07:27:59.705Z,99228.03
2022-09-17T07:33:02.353Z,99242.91
2022-09-17T07:38:03.922Z,99249.84
2022-09-17T07:43:05.520Z,99252.25
2022-09-17T07:48:07.022Z,99264.84
2022-09-17T07:53:08.537Z,99271.38
2022-09-17T07:58:10.074Z,99274.44
2022-09-17T08:03:11.651Z,99290.47
2022-09-17T08:08:14.231Z,99295.00
2022-09-17T08:13:17.250Z,99303.84
2022-09-17T08:18:18.907Z,99308.63
2022-09-17T08:23:20.555Z,99308.09
2022-09-17T08:28:23.934Z,99301.81
2022-09-17T08:33:25.545Z,99309.09
2022-09-17T08:38:34.555Z,99316.78
2022-09-17T08:43:49.418Z,99324.31
2022-09-17T08:49:25.037Z,99337.69
2022-09-17T08:54:33.116Z,99338.38
2022-09-17T08:59:41.348Z,99338.00
2022-09-17T09:05:02.132Z,99334.13
2022-09-17T09:10:05.479Z,99335.31
2022-09-17T09:15:19.097Z,99326.38
2022-09-17T09:20:30.082Z,99334.53
2022-09-17T09:25:37.138Z,99330.22
2022-09-17T09:30:55.695Z,99343.13
2022-09-17T09:35:57.337Z,99337.13
2022-09-17T09:41:15.578Z,99353.97
2022-09-17T09:46:44.570Z,99348.38
2022-09-17T09:52:07.338Z,99353.28
2022-09-17T09:57:14.344Z,99353.72
2022-09-17T10:02:16.869Z,99346.69
2022-09-17T10:07:18.583Z,99334.41
2022-09-17T10:12:21.610Z,99343.78
2022-09-17T10:17:25.393Z,99358.91
2022-09-17T10:22:32.654Z,99368.59
2022-09-17T10:27:36.762Z,99364.69
2022-09-17T10:32:38.345Z,99363.53
2022-09-17T10:37:44.188Z,99355.03
2022-09-17T10:42:50.269Z,99356.94
2022-09-17T10:47:52.048Z,99346.59
2022-09-17T10:52:58.778Z,99360.56
2022-09-17T10:58:58.942Z,99358.28
2022-09-17T11:04:16.242Z,99345.44
2022-09-17T11:09:20.508Z,99332.00
2022-09-17T11:14:49.393Z,99334.88
2022-09-17T11:19:55.463Z,99330.28
2022-09-17T11:25:19.866Z,99328.47
2022-09-17T11:30:23.254Z,99339.31
2022-09-17T11:35:33.650Z,99319.19
2022-09-17T11:40:40.678Z,99328.50
2022-09-17T11:45:51.980Z,99348.66
2022-09-17T11:50:58.379Z,99375.47
2022-09-17T11:56:09.356Z,99376.28
2022-09-17T12:01:31.984Z,99368.09
2022-09-17T12:06:46.979Z,99361.50
2022-09-17T12:12:01.140Z,99365.72
2022-09-17T12:17:03.611Z,99362.59
2022-09-17T12:22:10.781Z,99362.81
2022-09-17T12:27:38.900Z,99353.28
2022-09-17T12:33:24.863Z,99362.44
2022-09-17T12:38:44.970Z,99342.78
2022-09-17T12:44:23.581Z,99332.34
2022-09-17T12:49:47.943Z,99327.00
2022-09-17T12:55:12.729Z,99309.16
2022-09-17T13:00:15.965Z,99308.16
2022-09-17T13:05:35.847Z,99310.84
2022-09-17T13:11:01.752Z,99301.53
2022-09-17T13:16:18.320Z,99289.50
2022-09-17T13:21:32.472Z,99303.63
2022-09-17T13:26:36.705Z,99335.16
2022-09-17T13:31:38.174Z,99313.97
2022-09-17T13:36:49.233Z,99310.59
2022-09-17T13:42:02.184Z,99311.00
2022-09-17T13:47:17.488Z,99292.59
2022-09-17T13:52:51.650Z,99306.88
2022-09-17T13:57:53.238Z,99300.88
2022-09-17T14:02:54.988Z,99291.78
2022-09-17T14:08:14.871Z,99291.56
2022-09-17T14:13:25.332Z,99294.88
2022-09-17T14:18:27.256Z,99272.50
2022-09-17T14:23:28.849Z,99272.50
2022-09-17T14:28:38.906Z,99262.50
2022-09-17T14:33:40.534Z,99258.75
2022-09-17T14:38:45.454Z,99276.41
2022-09-17T14:44:02.598Z,99257.94
2022-09-17T14:49:19.683Z,99267.47
2022-09-17T14:54:32.336Z,99261.25
2022-09-17T14:59:43.237Z,99261.66
2022-09-17T15:04:44.786Z,99249.66
2022-09-17T15:09:46.590Z,99250.09
2022-09-17T15:14:48.406Z,99253.00
2022-09-17T15:19:52.578Z,99250.47
2022-09-17T15:24:57.241Z,99242.16
2022-09-17T15:30:06.556Z,99243.41
2022-09-17T15:35:14.064Z,99240.28
2022-09-17T15:40:25.843Z,99244.69
2022-09-17T15:45:29.591Z,99248.00
2022-09-17T15:50:34.023Z,99261.66
2022-09-17T15:55:38.253Z,99259.16
2022-09-17T16:00:39.830Z,99252.78
2022-09-17T16:05:47.695Z,99259.63
2022-09-17T16:10:49.374Z,99245.09
2022-09-17T16:15:50.988Z,99255.22
2022-09-17T16:20:52.527Z,99262.50
2022-09-17T16:25:54.055Z,99258.72
2022-09-17T16:30:56.058Z,99257.91
2022-09-17T16:35:58.684Z,99258.53
2022-09-17T16:41:00.220Z,99257.06
2022-09-17T16:46:03.896Z,99267.41
2022-09-17T16:51:09.594Z,99280.03
2022-09-17T16:56:13.243Z,99294.38
2022-09-17T17:01:16.033Z,99307.84
2022-09-17T17:06:19.204Z,99304.22
2022-09-17T17:11:20.762Z,99293.44
2022-09-17T17:16:23.795Z,99288.84
2022-09-17T17:21:25.375Z,99289.69
2022-09-17T17:26:26.905Z,99289.34
2022-09-17T17:31:28.904Z,99294.28
2022-09-17T17:36:31.958Z,99300.31
2022-09-17T17:41:33.502Z,99315.34
2022-09-17T17:46:35.087Z,99312.81
2022-09-17T17:51:36.730Z,99329.34
2022-09-17T17:56:38.536Z,99325.25
2022-09-17T18:01:40.254Z,99326.28
2022-09-17T18:06:42.719Z,99339.97
2022-09-17T18:11:44.245Z,99336.09
2022-09-17T18:16:45.747Z,99339.25
2022-09-17T18:21:47.266Z,99342.31
2022-09-17T18:26:48.837Z,99340.97
2022-09-17T18:31:50.574Z,99348.47
2022-09-17T18:36:52.230Z,99345.16
2022-09-17T18:41:53.795Z,99342.72
2022-09-17T18:46:55.530Z,99347.00
2022-09-17T18:51:57.262Z,99362.47
2022-09-17T18:56:58.930Z,99366.34
2022-09-17T19:02:00.546Z,99368.94
2022-09-17T19:07:02.200Z,99371.72
2022-09-17T19:12:04.109Z,99365.59
2022-09-17T19:17:05.707Z,99368.38
2022-09-17T19:22:08.232Z,99363.91
2022-09-17T19:27:09.862Z,99356.34
2022-09-17T19:32:11.713Z,99362.66
2022-09-17T19:37:13.283Z,99367.69
2022-09-17T19:42:14.816Z,99368.28
2022-09-17T19:47:16.320Z,99359.94
2022-09-17T19:52:21.044Z,99354.66
2022-09-17T19:57:22.547Z,99358.00
2022-09-17T20:02:24.299Z,99348.13
2022-09-17T20:07:28.731Z,99358.13
2022-09-17T20:12:30.301Z,99367.00
2022-09-17T20:17:31.820Z,99363.81
2022-09-17T20:22:33.344Z,99364.91
2022-09-17T20:27:34.851Z,99375.09
2022-09-17T20:32:36.465Z,99361.84
2022-09-17T20:38:33.109Z,99359.91
2022-09-17T20:42:59.551Z,99352.53
2022-09-17T20:48:01.199Z,99358.44
2022-09-17T20:53:02.731Z,99355.94
2022-09-17T20:58:05.942Z,99344.44
2022-09-17T21:03:07.453Z,99322.72
2022-09-17T21:08:09.075Z,99325.22
2022-09-17T21:13:10.851Z,99329.88
2022-09-17T21:18:15.682Z,99325.63
2022-09-17T21:23:22.747Z,99329.38
2022-09-17T21:28:24.262Z,99324.97
2022-09-17T21:33:25.821Z,99322.19
2022-09-17T21:38:28.461Z,99318.41
2022-09-17T21:43:31.110Z,99327.22
2022-09-17T21:48:35.159Z,99328.53
2022-09-17T21:53:36.828Z,99321.03
2022-09-17T21:58:38.512Z,99323.38
2022-09-17T22:03:40.476Z,99337.59
2022-09-17T22:08:42.025Z,99328.31
2022-09-17T22:13:52.228Z,99316.16
2022-09-17T22:18:53.783Z,99322.59
2022-09-17T22:23:57.783Z,99312.59
2022-09-17T22:29:04.640Z,99302.25
2022-09-17T22:34:11.066Z,99306.78
2022-09-17T22:39:12.722Z,99283.63
2022-09-17T22:44:18.656Z,99282.25
2022-09-17T22:49:20.288Z,99288.28
2022-09-17T22:54:21.822Z,99292.03
2022-09-17T22:59:23.402Z,99289.66
2022-09-17T23:04:25.072Z,99292.59
2022-09-17T23:09:26.593Z,99287.88
2022-09-17T23:14:28.359Z,99290.84
2022-09-17T23:19:29.968Z,99301.25
2022-09-17T23:24:34.294Z,99292.25
2022-09-17T23:29:35.819Z,99281.84
2022-09-17T23:34:37.792Z,99287.75
2022-09-17T23:39:41.329Z,99277.31
2022-09-17T23:44:42.872Z,99279.25
2022-09-17T23:49:44.435Z,99274.34
2022-09-17T23:54:45.963Z,99268.97
2022-09-17T23:59:47.491Z,99281.44
